createdAt,value
2023-02-18T00:01:24.150Z,92.40
2023-02-18T00:03:51.340Z,92.50
2023-02-18T00:06:22.625Z,92.60
2023-02-18T00:08:49.920Z,93.40
2023-02-18T00:11:18.179Z,93.70
2023-02-18T00:13:52.709Z,93.90
2023-02-18T00:16:19.920Z,94.90
2023-02-18T00:18:46.569Z,94.40
2023-02-18T00:21:13.275Z,94.40
2023-02-18T00:23:40.864Z,93.40
2023-02-18T00:26:13.007Z,95.30
2023-02-18T00:28:40.052Z,94.50
2023-02-18T00:31:17.114Z,94.80
2023-02-18T00:33:43.980Z,94.90
2023-02-18T00:36:13.793Z,94.40
2023-02-18T00:39:04.125Z,94.30
2023-02-18T00:41:31.247Z,94.10
2023-02-18T00:43:57.974Z,93.80
2023-02-18T00:46:25.654Z,92.30
2023-02-18T00:48:52.430Z,92.80
2023-02-18T00:51:19.565Z,93.10
2023-02-18T00:53:46.246Z,93.60
2023-02-18T00:56:13.239Z,92.40
2023-02-18T00:58:40.007Z,92.60
2023-02-18T01:01:07.881Z,93.90
2023-02-18T01:03:36.241Z,91.40
2023-02-18T01:06:04.064Z,92.90
2023-02-18T01:08:30.791Z,93.30
2023-02-18T01:10:58.802Z,93.60
2023-02-18T01:13:26.787Z,93.30
2023-02-18T01:15:53.666Z,92.30
2023-02-18T01:18:21.004Z,91.30
2023-02-18T01:20:48.181Z,92.80
2023-02-18T01:23:15.279Z,93.10
2023-02-18T01:25:41.967Z,92.10
2023-02-18T01:28:11.303Z,95.10
2023-02-18T01:30:38.078Z,94.10
2023-02-18T01:33:04.740Z,93.30
2023-02-18T01:35:31.910Z,92.90
2023-02-18T01:37:58.630Z,93.60
2023-02-18T01:40:27.394Z,92.40
2023-02-18T01:42:54.784Z,92.30
2023-02-18T01:45:33.561Z,93.30
2023-02-18T01:48:25.482Z,93.10
2023-02-18T01:51:31.961Z,94.20
2023-02-18T01:54:11.716Z,95.00
2023-02-18T01:56:42.868Z,93.70
2023-02-18T01:59:13.188Z,94.70
2023-02-18T02:01:42.918Z,94.50
2023-02-18T02:04:09.576Z,94.40
2023-02-18T02:06:36.585Z,94.00
2023-02-18T02:09:05.845Z,93.80
2023-02-18T02:12:00.734Z,93.70
2023-02-18T02:15:05.110Z,93.00
2023-02-18T02:17:50.236Z,93.90
2023-02-18T02:20:54.678Z,94.40
2023-02-18T02:23:52.658Z,94.00
2023-02-18T02:26:44.035Z,94.40
2023-02-18T02:29:48.375Z,94.30
2023-02-18T02:32:31.302Z,93.20
2023-02-18T02:35:03.295Z,91.70
2023-02-18T02:37:29.907Z,92.50
2023-02-18T02:40:03.986Z,93.90
2023-02-18T02:43:01.048Z,93.20
2023-02-18T02:45:52.311Z,93.60
2023-02-18T02:48:43.140Z,94.60
2023-02-18T02:51:18.216Z,93.00
2023-02-18T02:53:45.692Z,92.90
2023-02-18T02:56:21.426Z,92.70
2023-02-18T02:59:11.364Z,93.30
2023-02-18T03:01:44.757Z,93.50
2023-02-18T03:04:49.975Z,93.10
2023-02-18T03:07:54.691Z,93.40
2023-02-18T03:10:33.715Z,92.90
2023-02-18T03:13:09.315Z,93.70
2023-02-18T03:15:35.930Z,92.50
2023-02-18T03:18:11.955Z,94.30
2023-02-18T03:20:43.911Z,93.50
2023-02-18T03:23:14.892Z,92.60
2023-02-18T03:25:42.556Z,92.90
2023-02-18T03:28:12.430Z,93.90
2023-02-18T03:30:46.760Z,94.20
2023-02-18T03:33:17.427Z,92.40
2023-02-18T03:35:45.020Z,92.80
2023-02-18T03:38:41.108Z,92.30
2023-02-18T03:41:07.857Z,93.10
2023-02-18T03:43:34.609Z,91.60
2023-02-18T03:46:01.526Z,92.90
2023-02-18T03:48:28.214Z,93.40
2023-02-18T03:50:54.885Z,94.30
2023-02-18T03:53:21.547Z,94.40
2023-02-18T03:55:48.194Z,94.50
2023-02-18T03:58:14.917Z,95.60
2023-02-18T04:00:41.594Z,94.80
2023-02-18T04:03:08.315Z,94.50
2023-02-18T04:05:34.974Z,94.70
2023-02-18T04:08:01.624Z,94.50
2023-02-18T04:10:28.316Z,94.70
2023-02-18T04:12:55.061Z,94.10
2023-02-18T04:15:22.772Z,93.20
2023-02-18T04:17:49.912Z,92.70
2023-02-18T04:20:17.010Z,93.40
2023-02-18T04:22:43.719Z,93.40
2023-02-18T04:25:10.361Z,93.10
2023-02-18T04:27:37.006Z,93.30
2023-02-18T04:30:04.808Z,93.10
2023-02-18T04:32:31.678Z,92.80
2023-02-18T04:34:58.313Z,91.20
2023-02-18T04:37:25.100Z,91.40
2023-02-18T04:39:51.850Z,92.00
2023-02-18T04:42:18.486Z,93.10
2023-02-18T04:44:47.266Z,92.60
2023-02-18T04:47:14.414Z,92.30
2023-02-18T04:49:41.077Z,94.50
2023-02-18T04:52:08.032Z,95.10
2023-02-18T04:54:34.816Z,93.90
2023-02-18T04:57:01.530Z,94.10
2023-02-18T04:59:28.227Z,93.90
2023-02-18T05:01:54.893Z,95.20
2023-02-18T05:04:21.853Z,93.90
2023-02-18T05:06:49.301Z,93.80
2023-02-18T05:09:16.104Z,94.80
2023-02-18T05:11:43.532Z,94.10
2023-02-18T05:14:10.190Z,95.00
2023-02-18T05:16:36.950Z,93.30
2023-02-18T05:19:03.696Z,96.80
2023-02-18T05:21:30.494Z,95.50
2023-02-18T05:23:58.070Z,95.10
2023-02-18T05:26:24.848Z,95.40
2023-02-18T05:28:51.559Z,96.50
2023-02-18T05:31:18.360Z,97.00
2023-02-18T05:33:45.116Z,96.50
2023-02-18T05:36:11.787Z,96.80
2023-02-18T05:38:38.531Z,96.10
2023-02-18T05:41:05.260Z,95.70
2023-02-18T05:43:51.925Z,94.80
2023-02-18T05:46:18.618Z,95.70
2023-02-18T05:48:45.370Z,95.30
2023-02-18T05:51:12.349Z,95.60
2023-02-18T05:53:39.043Z,96.60
2023-02-18T05:56:06.382Z,96.90
2023-02-18T05:58:33.212Z,96.30
2023-02-18T06:00:59.917Z,97.20
2023-02-18T06:03:26.636Z,95.60
2023-02-18T06:05:53.314Z,96.40
2023-02-18T06:08:23.117Z,95.00
2023-02-18T06:10:49.813Z,96.70
2023-02-18T06:13:16.701Z,96.50
2023-02-18T06:15:43.388Z,95.90
2023-02-18T06:18:10.109Z,96.00
2023-02-18T06:20:36.786Z,95.70
2023-02-18T06:23:03.465Z,96.70
2023-02-18T06:25:30.152Z,96.80
2023-02-18T06:27:56.929Z,97.70
2023-02-18T06:30:24.592Z,97.00
2023-02-18T06:32:51.356Z,97.80
2023-02-18T06:35:18.352Z,97.80
2023-02-18T06:37:45.894Z,97.40
2023-02-18T06:40:12.785Z,97.30
2023-02-18T06:42:39.508Z,96.00
2023-02-18T06:45:08.942Z,97.10
2023-02-18T06:47:35.639Z,96.60
2023-02-18T06:50:02.490Z,96.40
2023-02-18T06:52:30.823Z,96.70
2023-02-18T06:54:57.558Z,96.60
2023-02-18T06:57:24.638Z,96.40
2023-02-18T06:59:51.390Z,96.60
2023-02-18T07:02:18.056Z,97.30
2023-02-18T07:04:46.466Z,97.80
2023-02-18T07:07:13.324Z,97.80
2023-02-18T07:09:40.625Z,97.40
2023-02-18T07:12:07.381Z,98.40
2023-02-18T07:14:34.360Z,98.50
2023-02-18T07:17:01.015Z,98.50
2023-02-18T07:19:27.859Z,99.80
2023-02-18T07:21:57.515Z,99.30
2023-02-18T07:24:24.470Z,99.40
2023-02-18T07:26:51.613Z,99.50
2023-02-18T07:29:18.356Z,99.80
2023-02-18T07:31:45.159Z,99.50
2023-02-18T07:34:11.914Z,98.80
2023-02-18T07:36:38.801Z,99.90
2023-02-18T07:39:05.615Z,99.10
2023-02-18T07:41:32.351Z,99.90
2023-02-18T07:43:59.258Z,99.90
2023-02-18T07:46:26.025Z,99.90
2023-02-18T07:48:52.744Z,99.90
2023-02-18T07:51:19.458Z,99.90
2023-02-18T07:53:46.136Z,99.90
2023-02-18T07:56:12.849Z,99.90
2023-02-18T07:58:40.002Z,99.90
2023-02-18T08:01:11.773Z,99.90
2023-02-18T08:03:38.494Z,99.90
2023-02-18T08:06:06.281Z,99.90
2023-02-18T08:08:35.972Z,99.90
2023-02-18T08:11:13.401Z,99.90
2023-02-18T08:13:45.576Z,99.90
2023-02-18T08:16:13.436Z,99.90
2023-02-18T08:18:40.190Z,99.90
2023-02-18T08:21:06.898Z,99.90
2023-02-18T08:23:33.719Z,99.90
2023-02-18T08:26:00.495Z,99.90
2023-02-18T08:28:27.283Z,99.90
2023-02-18T08:30:54.697Z,99.90
2023-02-18T08:33:21.993Z,99.90
2023-02-18T08:35:49.896Z,99.90
2023-02-18T08:38:16.677Z,99.90
2023-02-18T08:40:43.409Z,99.90
2023-02-18T08:43:10.507Z,99.90
2023-02-18T08:45:38.338Z,99.90
2023-02-18T08:48:17.479Z,99.90
2023-02-18T08:50:47.448Z,99.90
2023-02-18T08:53:15.004Z,99.90
2023-02-18T08:55:41.772Z,99.90
2023-02-18T08:58:09.061Z,99.90
2023-02-18T09:00:36.842Z,99.90
2023-02-18T09:03:04.024Z,99.90
2023-02-18T09:05:30.950Z,99.90
2023-02-18T09:07:57.766Z,99.90
2023-02-18T09:10:24.519Z,99.90
2023-02-18T09:12:51.372Z,99.90
2023-02-18T09:15:18.337Z,99.90
2023-02-18T09:17:45.021Z,99.90
2023-02-18T09:20:11.951Z,99.90
2023-02-18T09:22:38.700Z,99.90
2023-02-18T09:25:05.981Z,99.90
2023-02-18T09:27:32.852Z,99.90
2023-02-18T09:29:59.583Z,99.90
2023-02-18T09:32:34.393Z,99.90
2023-02-18T09:35:02.861Z,99.90
2023-02-18T09:37:29.745Z,99.90
2023-02-18T09:39:56.566Z,99.90
2023-02-18T09:42:29.786Z,99.90
2023-02-18T09:45:00.379Z,99.90
2023-02-18T09:47:35.780Z,99.90
2023-02-18T09:50:27.701Z,99.90
2023-02-18T09:52:54.742Z,99.90
2023-02-18T09:55:34.031Z,99.90
2023-02-18T09:58:06.845Z,99.90
2023-02-18T10:00:35.616Z,99.90
2023-02-18T10:03:24.648Z,99.90
2023-02-18T10:06:08.656Z,99.90
2023-02-18T10:08:38.367Z,99.90
2023-02-18T10:11:07.027Z,99.90
2023-02-18T10:13:34.537Z,99.90
2023-02-18T10:16:02.373Z,99.90
2023-02-18T10:18:32.731Z,99.90
2023-02-18T10:21:10.022Z,99.90
2023-02-18T10:23:40.809Z,99.90
2023-02-18T10:26:12.998Z,99.90
2023-02-18T10:28:39.864Z,99.90
2023-02-18T10:31:10.956Z,99.90
2023-02-18T10:34:16.136Z,99.90
2023-02-18T10:36:46.464Z,99.90
2023-02-18T10:39:32.690Z,99.90
2023-02-18T10:42:23.870Z,99.90
2023-02-18T10:45:03.926Z,99.90
2023-02-18T10:47:38.250Z,99.90
2023-02-18T10:50:17.623Z,99.90
2023-02-18T10:52:47.937Z,99.40
2023-02-18T10:55:18.624Z,98.90
2023-02-18T10:57:53.558Z,98.40
2023-02-18T11:00:27.066Z,98.90
2023-02-18T11:03:19.567Z,97.80
2023-02-18T11:05:48.678Z,98.30
2023-02-18T11:08:18.918Z,99.90
2023-02-18T11:10:46.744Z,97.50
2023-02-18T11:13:16.514Z,98.00
2023-02-18T11:15:56.843Z,99.40
2023-02-18T11:18:26.565Z,96.90
2023-02-18T11:20:58.807Z,97.00
2023-02-18T11:23:25.780Z,95.60
2023-02-18T11:25:56.144Z,92.30
2023-02-18T11:28:30.460Z,91.60
2023-02-18T11:31:00.283Z,90.90
2023-02-18T11:33:34.421Z,91.80
2023-02-18T11:36:38.894Z,94.20
2023-02-18T11:39:29.559Z,93.60
2023-02-18T11:42:06.275Z,89.80
2023-02-18T11:44:33.043Z,90.50
2023-02-18T11:47:04.087Z,88.90
2023-02-18T11:49:34.123Z,82.30
2023-02-18T11:52:27.660Z,87.50
2023-02-18T11:55:05.636Z,91.20
2023-02-18T11:57:35.592Z,88.20
2023-02-18T12:00:04.637Z,89.10
2023-02-18T12:02:37.675Z,84.90
2023-02-18T12:05:19.182Z,76.20
2023-02-18T12:08:01.742Z,84.90
2023-02-18T12:10:33.385Z,82.30
2023-02-18T12:13:07.318Z,83.80
2023-02-18T12:15:46.992Z,90.40
2023-02-18T12:18:33.524Z,80.30
2023-02-18T12:21:24.929Z,75.80
2023-02-18T12:23:54.581Z,77.90
2023-02-18T12:26:27.322Z,77.20
2023-02-18T12:29:06.117Z,78.90
2023-02-18T12:31:41.992Z,82.10
2023-02-18T12:34:26.794Z,80.40
2023-02-18T12:37:09.314Z,74.80
2023-02-18T12:39:42.215Z,81.60
2023-02-18T12:42:23.832Z,75.40
2023-02-18T12:45:09.723Z,64.90
2023-02-18T12:48:02.752Z,76.80
2023-02-18T12:50:40.426Z,79.90
2023-02-18T12:53:31.103Z,75.90
2023-02-18T12:56:00.750Z,79.70
2023-02-18T12:58:46.152Z,82.80
2023-02-18T13:01:21.357Z,63.70
2023-02-18T13:03:48.038Z,76.90
2023-02-18T13:06:33.228Z,71.70
2023-02-18T13:09:24.560Z,74.20
2023-02-18T13:12:15.450Z,73.80
2023-02-18T13:15:08.495Z,74.50
2023-02-18T13:17:37.355Z,71.60
2023-02-18T13:20:14.474Z,71.90
2023-02-18T13:22:41.865Z,70.80
2023-02-18T13:25:13.324Z,67.20
2023-02-18T13:28:03.481Z,62.50
2023-02-18T13:30:43.341Z,60.20
2023-02-18T13:33:31.656Z,65.20
2023-02-18T13:36:24.761Z,55.40
2023-02-18T13:39:01.560Z,58.20
2023-02-18T13:41:28.566Z,56.80
2023-02-18T13:43:55.457Z,57.80
2023-02-18T13:46:25.509Z,59.40
2023-02-18T13:48:52.839Z,54.20
2023-02-18T13:51:39.323Z,57.30
2023-02-18T13:54:25.276Z,56.80
2023-02-18T13:57:26.494Z,52.10
2023-02-18T14:00:05.316Z,50.20
2023-02-18T14:02:35.316Z,52.90
2023-02-18T14:05:08.612Z,56.20
2023-02-18T14:07:44.663Z,53.30
2023-02-18T14:10:16.839Z,51.80
2023-02-18T14:13:02.517Z,57.30
2023-02-18T14:15:29.188Z,57.60
2023-02-18T14:17:58.848Z,51.70
2023-02-18T14:20:31.267Z,58.80
2023-02-18T14:22:58.322Z,48.10
2023-02-18T14:25:38.256Z,43.60
2023-02-18T14:28:33.953Z,45.50
2023-02-18T14:31:31.026Z,50.00
2023-02-18T14:34:01.075Z,43.70
2023-02-18T14:36:39.679Z,51.90
2023-02-18T14:39:15.331Z,51.50
2023-02-18T14:41:51.212Z,52.90
2023-02-18T14:44:31.179Z,50.60
2023-02-18T14:47:34.384Z,51.10
2023-02-18T14:50:03.780Z,52.90
2023-02-18T14:52:37.594Z,52.60
2023-02-18T14:55:06.573Z,51.90
2023-02-18T14:57:38.887Z,45.90
2023-02-18T15:00:07.086Z,51.40
2023-02-18T15:02:38.517Z,46.00
2023-02-18T15:05:16.101Z,49.20
2023-02-18T15:07:43.395Z,48.00
2023-02-18T15:10:16.584Z,39.80
2023-02-18T15:12:43.460Z,41.80
2023-02-18T15:15:10.179Z,54.50
2023-02-18T15:17:37.090Z,45.10
2023-02-18T15:20:06.656Z,47.80
2023-02-18T15:22:34.169Z,52.10
2023-02-18T15:25:00.980Z,49.60
2023-02-18T15:27:30.368Z,48.10
2023-02-18T15:29:59.947Z,45.90
2023-02-18T15:32:29.038Z,39.70
2023-02-18T15:35:02.161Z,43.30
2023-02-18T15:37:29.654Z,42.90
2023-02-18T15:39:56.651Z,45.60
2023-02-18T15:42:34.503Z,39.30
2023-02-18T15:45:18.935Z,39.00
2023-02-18T15:47:48.137Z,33.40
2023-02-18T15:50:21.073Z,42.30
2023-02-18T15:52:48.814Z,34.00
2023-02-18T15:55:31.409Z,41.90
2023-02-18T15:58:04.699Z,40.40
2023-02-18T16:00:47.292Z,41.60
2023-02-18T16:03:25.775Z,42.30
2023-02-18T16:06:18.095Z,39.10
2023-02-18T16:09:06.726Z,39.70
2023-02-18T16:11:39.314Z,35.70
2023-02-18T16:14:06.400Z,32.80
2023-02-18T16:16:35.190Z,40.00
2023-02-18T16:19:02.988Z,36.00
2023-02-18T16:21:40.599Z,36.60
2023-02-18T16:24:32.851Z,30.00
2023-02-18T16:27:01.373Z,36.70
2023-02-18T16:29:36.285Z,32.70
2023-02-18T16:32:03.596Z,36.60
2023-02-18T16:34:30.434Z,39.70
2023-02-18T16:37:16.073Z,36.20
2023-02-18T16:39:43.408Z,35.80
2023-02-18T16:42:11.430Z,40.70
2023-02-18T16:44:38.618Z,44.40
2023-02-18T16:47:05.809Z,45.10
2023-02-18T16:49:33.037Z,41.90
2023-02-18T16:52:02.494Z,42.40
2023-02-18T16:54:29.189Z,38.90
2023-02-18T16:56:55.850Z,43.20
2023-02-18T16:59:22.520Z,44.10
2023-02-18T17:01:49.223Z,44.80
2023-02-18T17:04:17.906Z,45.50
2023-02-18T17:06:48.603Z,46.50
2023-02-18T17:09:22.039Z,47.80
2023-02-18T17:11:50.856Z,46.80
2023-02-18T17:14:18.986Z,45.60
2023-02-18T17:16:46.865Z,48.50
2023-02-18T17:19:13.698Z,51.10
2023-02-18T17:21:40.552Z,48.90
2023-02-18T17:24:09.875Z,47.70
2023-02-18T17:26:36.611Z,51.30
2023-02-18T17:29:05.321Z,52.00
2023-02-18T17:31:35.274Z,54.00
2023-02-18T17:34:06.488Z,55.70
2023-02-18T17:36:33.419Z,56.80
2023-02-18T17:39:02.785Z,57.50
2023-02-18T17:41:29.632Z,58.00
2023-02-18T17:43:56.338Z,59.60
2023-02-18T17:46:23.114Z,54.80
2023-02-18T17:48:49.930Z,58.30
2023-02-18T17:51:27.551Z,57.10
2023-02-18T17:53:54.345Z,56.90
2023-02-18T17:56:21.218Z,58.10
2023-02-18T17:58:48.880Z,57.30
2023-02-18T18:01:17.179Z,57.20
2023-02-18T18:03:44.012Z,56.80
2023-02-18T18:06:18.915Z,57.60
2023-02-18T18:08:46.548Z,60.00
2023-02-18T18:11:16.704Z,57.20
2023-02-18T18:13:43.390Z,59.20
2023-02-18T18:16:12.471Z,58.40
2023-02-18T18:18:39.268Z,59.20
2023-02-18T18:21:06.378Z,58.00
2023-02-18T18:23:34.109Z,60.00
2023-02-18T18:26:00.843Z,60.00
2023-02-18T18:28:28.148Z,61.80
2023-02-18T18:30:56.463Z,62.30
2023-02-18T18:33:25.958Z,58.90
2023-02-18T18:35:54.603Z,61.00
2023-02-18T18:38:23.192Z,60.90
2023-02-18T18:40:50.539Z,61.20
2023-02-18T18:43:25.987Z,62.40
2023-02-18T18:45:53.144Z,63.20
2023-02-18T18:48:21.247Z,63.00
2023-02-18T18:50:48.734Z,64.30
2023-02-18T18:53:20.558Z,64.10
2023-02-18T18:55:48.141Z,64.30
2023-02-18T18:58:20.448Z,64.40
2023-02-18T19:00:50.573Z,63.70
2023-02-18T19:03:17.733Z,63.90
2023-02-18T19:05:45.309Z,62.10
2023-02-18T19:08:13.021Z,63.50
2023-02-18T19:10:42.161Z,64.20
2023-02-18T19:13:13.280Z,62.00
2023-02-18T19:15:40.459Z,64.00
2023-02-18T19:18:07.648Z,64.60
2023-02-18T19:20:35.999Z,65.00
2023-02-18T19:23:03.533Z,66.00
2023-02-18T19:25:31.026Z,65.00
2023-02-18T19:27:57.900Z,64.50
2023-02-18T19:30:27.298Z,64.70
2023-02-18T19:32:55.821Z,65.80
2023-02-18T19:35:23.498Z,65.70
2023-02-18T19:37:50.204Z,67.80
2023-02-18T19:40:19.630Z,66.30
2023-02-18T19:42:46.754Z,67.10
2023-02-18T19:45:13.929Z,66.00
2023-02-18T19:47:40.713Z,67.10
2023-02-18T19:50:08.525Z,67.10
2023-02-18T19:52:35.482Z,68.50
2023-02-18T19:55:02.151Z,70.60
2023-02-18T19:57:28.907Z,69.10
2023-02-18T19:59:55.587Z,70.90
2023-02-18T20:02:24.796Z,72.10
2023-02-18T20:04:51.913Z,71.50
2023-02-18T20:07:20.586Z,72.40
2023-02-18T20:09:47.489Z,71.50
2023-02-18T20:12:14.442Z,72.70
2023-02-18T20:14:43.534Z,73.50
2023-02-18T20:17:10.906Z,73.90
2023-02-18T20:19:38.028Z,73.70
2023-02-18T20:22:06.897Z,73.80
2023-02-18T20:24:34.238Z,72.70
2023-02-18T20:27:02.769Z,72.10
2023-02-18T20:29:30.735Z,72.70
2023-02-18T20:31:57.431Z,74.30
2023-02-18T20:34:24.222Z,73.70
2023-02-18T20:36:51.642Z,73.70
2023-02-18T20:39:19.780Z,73.80
2023-02-18T20:41:48.080Z,73.50
2023-02-18T20:44:15.947Z,73.50
2023-02-18T20:46:43.175Z,72.90
2023-02-18T20:49:15.165Z,73.80
2023-02-18T20:51:42.306Z,74.90
2023-02-18T20:54:14.032Z,73.80
2023-02-18T20:56:40.917Z,72.70
2023-02-18T20:59:07.583Z,74.20
2023-02-18T21:01:34.280Z,75.90
2023-02-18T21:04:01.493Z,76.00
2023-02-18T21:06:28.596Z,76.70
2023-02-18T21:08:55.244Z,76.60
2023-02-18T21:11:26.362Z,76.80
2023-02-18T21:13:55.096Z,76.20
2023-02-18T21:16:23.616Z,76.30
2023-02-18T21:18:50.868Z,77.10
2023-02-18T21:21:19.112Z,77.80
2023-02-18T21:23:46.069Z,77.30
2023-02-18T21:26:15.369Z,76.10
2023-02-18T21:28:42.485Z,76.60
2023-02-18T21:31:17.633Z,77.20
2023-02-18T21:33:44.480Z,77.10
2023-02-18T21:36:13.841Z,77.10
2023-02-18T21:38:44.143Z,77.30
2023-02-18T21:41:13.131Z,77.90
2023-02-18T21:43:40.033Z,78.00
2023-02-18T21:46:28.041Z,79.30
2023-02-18T21:49:09.446Z,79.90
2023-02-18T21:51:57.176Z,81.40
2023-02-18T21:54:32.674Z,81.00
2023-02-18T21:57:00.941Z,77.20
2023-02-18T21:59:29.072Z,79.60
2023-02-18T22:01:56.805Z,80.80
2023-02-18T22:04:24.026Z,83.00
2023-02-18T22:06:50.799Z,80.40
2023-02-18T22:09:17.459Z,83.70
2023-02-18T22:11:44.782Z,83.10
2023-02-18T22:14:12.837Z,83.00
2023-02-18T22:16:40.556Z,81.50
2023-02-18T22:19:08.069Z,79.00
2023-02-18T22:21:35.724Z,80.60
2023-02-18T22:28:59.534Z,82.40
2023-02-18T22:31:28.234Z,79.60
2023-02-18T22:33:56.889Z,81.40
2023-02-18T22:36:24.979Z,84.40
2023-02-18T22:41:23.801Z,83.50
2023-02-18T22:43:59.309Z,82.60
2023-02-18T22:46:26.966Z,86.00
2023-02-18T22:48:55.960Z,86.20
2023-02-18T22:51:28.395Z,87.50
2023-02-18T22:53:56.513Z,85.50
2023-02-18T22:56:24.413Z,84.90
2023-02-18T22:58:52.785Z,83.80
2023-02-18T23:01:30.130Z,82.50
2023-02-18T23:03:59.174Z,87.70
2023-02-18T23:06:26.781Z,88.60
2023-02-18T23:08:54.992Z,86.50
2023-02-18T23:14:17.253Z,84.70
2023-02-18T23:17:03.362Z,87.20
2023-02-18T23:19:31.544Z,88.30
2023-02-18T23:21:58.750Z,90.10
2023-02-18T23:24:25.469Z,89.00
2023-02-18T23:26:52.347Z,87.50
2023-02-18T23:29:19.259Z,89.50
2023-02-18T23:31:46.079Z,89.00
2023-02-18T23:34:14.850Z,89.60
2023-02-18T23:36:43.128Z,89.80
2023-02-18T23:39:11.909Z,89.60
2023-02-18T23:41:38.790Z,88.90
2023-02-18T23:44:07.181Z,90.00
2023-02-18T23:46:34.221Z,90.00
2023-02-18T23:49:01.422Z,90.20
2023-02-18T23:51:29.775Z,90.40
2023-02-18T23:53:57.106Z,90.70
2023-02-18T23:56:26.142Z,90.30
2023-02-18T23:58:57.906Z,90.30
